Gateway Express — WDG6245 — position and weather

sailwx.info

Track history (hours):
 
Tides and Currents Weather Stations Pressure Air Temp Water Temp Dewpoint Dewpoint Depression Visibility Wind Speed Wind Dir Waves Ship Positions

Gateway Express

Owner: American River Transportation Company, St Louis, MO. More information available from US FCC via Universal Licensing System and Coast Guard Vessel Documentation Center.

Last reported at 2018-May-15 06:37 UTC. Time now 2018-May-23 01:31 UTC.
Position N 38°35' W 090°13'.

; draft 2.4 m.

Type: Towing. MMSI: 367549430.

Date/timePositionNaut miles runAvg speedWind from/ knotsBaromVisibWave heightAir tempDewpointWater temp
2018-May-15 06:37N 38°35' W 090°13'212.4
2018-May-15 06:30N 38°36' W 090°11'4 7.1
2018-May-15 05:58N 38°40' W 090°11'2 3.9
2018-May-15 05:22N 38°38' W 090°11'1 0.8
2018-May-15 04:27N 38°37' W 090°11'4 8.3
2018-May-15 03:59N 38°41' W 090°12'0 0.4
2018-May-15 03:30N 38°41' W 090°12'1 2.1
2018-May-15 03:00N 38°40' W 090°11'2 4.5
2018-May-15 02:29N 38°38' W 090°11'2 0.2
2018-May-14 17:02N 38°36' W 090°12'0 0.2
2018-May-14 16:22N 38°36' W 090°12'  
2018-May-11 10:04N 38°35' W 090°13'2 3.7
2018-May-11 09:39N 38°36' W 090°11'211.0
2018-May-11 09:30N 38°38' W 090°11'2 5.0
2018-May-11 09:00N 38°40' W 090°11'0 0.5
2018-May-11 08:31N 38°40' W 090°11'0 0.7
2018-May-11 08:00N 38°40' W 090°11'1 2.3
2018-May-11 07:30N 38°39' W 090°11'1 2.5
2018-May-11 06:59N 38°38' W 090°11'2 0.2
2018-May-10 21:42N 38°36' W 090°12'2 1.3
2018-May-10 20:28N 38°37' W 090°11'3 5.7
2018-May-10 19:57N 38°40' W 090°11'2 4.9
2018-May-10 19:28N 38°38' W 090°11'1 0.3
2018-May-10 17:17N 38°37' W 090°11'3 9.9
2018-May-10 17:00N 38°40' W 090°11'1 1.1
2018-May-10 16:30N 38°39' W 090°11'1 2.6
2018-May-10 15:59N 38°38' W 090°11'  
Track history (hours):
 
Tides and Currents Weather Stations Pressure Air Temp Water Temp Dewpoint Dewpoint Depression Visibility Wind Speed Wind Dir Waves Ship Positions

Gateway Express

Owner: American River Transportation Company, St Louis, MO. More information available from US FCC via Universal Licensing System and Coast Guard Vessel Documentation Center.

Last reported at 2018-May-15 06:37 UTC. Time now 2018-May-23 01:31 UTC.
Position N 38°35' W 090°13'.

; draft 2.4 m.

Type: Towing. MMSI: 367549430.

Date/timePositionNaut miles runAvg speedWind from/ knotsBaromVisibWave heightAir tempDewpointWater temp
2018-May-15 06:37N 38°35' W 090°13'212.4
2018-May-15 06:30N 38°36' W 090°11'4 7.1
2018-May-15 05:58N 38°40' W 090°11'2 3.9
2018-May-15 05:22N 38°38' W 090°11'1 0.8
2018-May-15 04:27N 38°37' W 090°11'4 8.3
2018-May-15 03:59N 38°41' W 090°12'0 0.4
2018-May-15 03:30N 38°41' W 090°12'1 2.1
2018-May-15 03:00N 38°40' W 090°11'2 4.5
2018-May-15 02:29N 38°38' W 090°11'2 0.2
2018-May-14 17:02N 38°36' W 090°12'0 0.2
2018-May-14 16:22N 38°36' W 090°12'  
2018-May-11 10:04N 38°35' W 090°13'2 3.7
2018-May-11 09:39N 38°36' W 090°11'211.0
2018-May-11 09:30N 38°38' W 090°11'2 5.0
2018-May-11 09:00N 38°40' W 090°11'0 0.5
2018-May-11 08:31N 38°40' W 090°11'0 0.7
2018-May-11 08:00N 38°40' W 090°11'1 2.3
2018-May-11 07:30N 38°39' W 090°11'1 2.5
2018-May-11 06:59N 38°38' W 090°11'2 0.2
2018-May-10 21:42N 38°36' W 090°12'2 1.3
2018-May-10 20:28N 38°37' W 090°11'3 5.7
2018-May-10 19:57N 38°40' W 090°11'2 4.9
2018-May-10 19:28N 38°38' W 090°11'1 0.3
2018-May-10 17:17N 38°37' W 090°11'3 9.9
2018-May-10 17:00N 38°40' W 090°11'1 1.1
2018-May-10 16:30N 38°39' W 090°11'1 2.6
2018-May-10 15:59N 38°38' W 090°11'  

Dump ship's entire track history